Nearby METAR Reports

 

KMTN - Baltimore/Martin, Maryland, USA
Distance from station: SSE 8mi, 13km
Updated: Sat, 20-Sep-2014 6:55am EDT
Partly cloudy
Partly cloudy
 Wind from N
Wind: N 3 mph , 6 km/h
Temperature: 61°F , 16°C
Dew Point: 61°F , 16°C
Humidity: 100%
Barometer: 30.28 inHg , 1025.4 hPa
Clouds: Partly cloudy
Visibility: 10 miles , 16 km
Cloud details: Partly cloudy 2500 ft
Partly cloudy 9000 ft
2014/09/20 10:55 KMTN 201055Z 01003KT 10SM SCT025 SCT090 16/16 A3028
KDMH - Baltimore/Dwntwn, Maryland, USA
Distance from station: SW 12mi, 19km
Updated: Sat, 20-Sep-2014 6:54am EDT

 
Temperature: 63°F , 17°C
Dew Point: 59°F , 15°C
Humidity: 88%
Barometer: 30.27 inHg , 1025.1 hPa
2014/09/20 10:54 KDMH 201054Z AUTO 17/15 A3027 RMK AO1 SLP249 T01720150
 
KBWI - Balto/Wash Intl, Maryland, USA
Distance from station: SSW 20mi, 33km
Updated: Sat, 20-Sep-2014 6:54am EDT
Mist, Partly cloudy
Mist, Partly cloudy
 Wind from calm
Wind: Calm
Temperature: 61°F , 16°C
Dew Point: 57°F , 14°C
Humidity: 88%
Barometer: 30.26 inHg , 1024.7 hPa
Summary: Mist
Clouds: Partly cloudy
Visibility: 4 miles , 6 km
Cloud details: Partly cloudy 8500 ft
2014/09/20 10:54 KBWI 201054Z 00000KT 4SM BR SCT085 16/14 A3026 RMK AO2 SLP246 T01610144
KDMW - Carroll Cnty, Maryland, USA
Distance from station: WNW 30mi, 48km
Updated: Sat, 20-Sep-2014 7:40am EDT
Mist, Overcast
Mist, Overcast
 Wind from calm
Wind: Calm
Temperature: 61°F , 16°C
Dew Point: 57°F , 14°C
Humidity: 88%
Barometer: 30.27 inHg , 1025.1 hPa
Summary: Mist
Clouds: Overcast
Visibility: 1 mile , 2 km
Cloud details: Overcast 200 ft
2014/09/20 11:40 KDMW 201140Z AUTO 00000KT 1SM BR OVC002 16/14 A3027 RMK AO2
 
KNAK - Annapolis/Naval, Maryland, USA
Distance from station: S 30mi, 48km
Updated: Sat, 20-Sep-2014 7:50am EDT
Few Clouds
Few Clouds
 Wind from ESE
Wind: ESE 8 mph , 13 km/h
Temperature: 68°F , 20°C
Dew Point: 63°F , 17°C
Humidity: 83%
Barometer: 30.26 inHg , 1024.7 hPa
Clouds: Few Clouds
Visibility: 9 miles , 14 km
Cloud details: Few Clouds 2900 ft
2014/09/20 11:50 KNAK 201150Z AUTO 11007KT 9SM FEW029 20/17 A3026 RMK AO2 $
KW29 - Stevensville, Maryland, USA
Distance from station: SSE 31mi, 50km
Updated: Sat, 20-Sep-2014 7:41am EDT

 Wind from calm
Wind: Calm
Temperature: 63°F , 17°C
Dew Point: 61°F , 16°C
Humidity: 94%
Barometer: 30.27 inHg , 1025.1 hPa
Visibility: 10 miles , 16 km
2014/09/20 11:41 KW29 201141Z AUTO 00000KT 10SM 17/16 A3027 RMK AO1
 
KCGS - College Park, Maryland, USA
Distance from station: SW 38mi, 61km
Updated: Sat, 20-Sep-2014 7:40am EDT
Clear
Clear
 Wind from calm
Wind: Calm
Temperature: 59°F , 15°C
Dew Point: 59°F , 15°C
Humidity: 100%
Barometer: 30.25 inHg , 1024.4 hPa
Clouds: Clear
Visibility: 5 miles , 8 km
2014/09/20 11:40 KCGS 201140Z AUTO 00000KT 5SM CLR 15/15 A3025 RMK AO1
KGAI - Gaithersburg, Maryland, USA
Distance from station: WSW 40mi, 65km
Updated: Sat, 20-Sep-2014 7:35am EDT
Partly cloudy
Partly cloudy
 Wind from calm
Wind: Calm
Temperature: 59°F , 15°C
Dew Point: 57°F , 14°C
Humidity: 94%
Barometer: 30.30 inHg , 1026.1 hPa
Clouds: Partly cloudy
Visibility: 1 3/4 miles , 5 km
Cloud details: Partly cloudy 7000 ft
2014/09/20 11:35 KGAI 201135Z 00000KT 1 3/4SM SCT070 15/14 A3030 RMK AO1
 
KTHV - York, Pennsylvania, USA
Distance from station: NNW 40mi, 65km
Updated: Sat, 20-Sep-2014 6:53am EDT
Mist, Overcast
Mist, Overcast
 Wind from calm
Wind: Calm
Temperature: 61°F , 16°C
Dew Point: 57°F , 14°C
Humidity: 88%
Barometer: 30.27 inHg , 1025.1 hPa
Summary: Mist
Clouds: Overcast
Visibility: 6 miles , 10 km
Cloud details: Overcast 900 ft
2014/09/20 10:53 KTHV 201053Z AUTO 00000KT 6SM BR OVC009 16/14 A3027 RMK AO2 CIG 007V012 SLP249 T01560144
KFDK - Frederick, Maryland, USA
Distance from station: W 47mi, 75km
Updated: Sat, 20-Sep-2014 6:45am EDT
Overcast
Overcast
 Wind from calm
Wind: Calm
Temperature: 61°F , 16°C
Dew Point: 59°F , 15°C
Humidity: 94%
Barometer: 30.28 inHg , 1025.4 hPa
Clouds: Overcast
Visibility: 3 miles , 5 km
Cloud details: Overcast 1500 ft
2014/09/20 10:45 KFDK 201045Z 00000KT 3SM OVC015 16/15 A3028
 
KESN - Easton/Newnam, Maryland, USA
Distance from station: SSE 48mi, 78km
Updated: Sat, 20-Sep-2014 6:50am EDT
Few Clouds
Few Clouds
 Wind from calm
Wind: Calm
Temperature: 59°F , 15°C
Dew Point: 59°F , 15°C
Humidity: 100%
Barometer: 30.30 inHg , 1026.1 hPa
Clouds: Few Clouds
Visibility: 7 miles , 11 km
Cloud details: Few Clouds 8500 ft
2014/09/20 10:50 KESN 201050Z 00000KT 7SM FEW085 15/15 A3030
KDCA - Washington/Natl, Washington D.c., USA
Distance from station: SW 49mi, 79km
Updated: Sat, 20-Sep-2014 6:52am EDT
Partly cloudy
Partly cloudy
 Wind from calm
Wind: Calm
Temperature: 64°F , 18°C
Dew Point: 59°F , 15°C
Humidity: 83%
Barometer: 30.26 inHg , 1024.7 hPa
Clouds: Partly cloudy
Visibility: 9 miles , 14 km
Cloud details: Partly cloudy 9000 ft
2014/09/20 10:52 KDCA 201052Z 00000KT 9SM SCT090 18/15 A3026 RMK AO2 SLP247 T01830150
 
KLNS - Lancaster, Pennsylvania, USA
Distance from station: N 49mi, 79km
Updated: Sat, 20-Sep-2014 7:45am EDT
Mist, Mostly cloudy
Mist, Mostly cloudy
 Wind from ESE
Wind: ESE 3 mph , 6 km/h
Temperature: 55°F , 13°C
Dew Point: 55°F , 13°C
Humidity: 100%
Barometer: 30.27 inHg , 1025.1 hPa
Summary: Mist
Clouds: Mostly cloudy
Visibility: 2 1/2 miles , 2 km
Cloud details: Partly cloudy 2700 ft
Mostly cloudy 7000 ft
2014/09/20 11:45 KLNS 201145Z 11003KT 2 1/2SM BR SCT027 BKN070 13/13 A3027 RMK AO2 T01330128
KILG - Wilmington, Delaware, USA
Distance from station: ENE 50mi, 81km
Updated: Sat, 20-Sep-2014 7:38am EDT
Partly cloudy
Partly cloudy
 Wind from ENE
Wind: ENE 7 mph , 11 km/h
Temperature: 61°F , 16°C
Dew Point: 57°F , 14°C
Humidity: 88%
Barometer: 30.28 inHg , 1025.4 hPa
Clouds: Partly cloudy
Visibility: 10 miles , 16 km
Cloud details: Partly cloudy 2800 ft
2014/09/20 11:38 KILG 201138Z AUTO 07006KT 10SM SCT028 16/14 A3028 RMK AO2 T01610139